createdAt,value
2017-09-25T00:00:09.672Z,14.33
2017-09-25T00:01:10.018Z,14.36
2017-09-25T00:02:09.718Z,14.35
2017-09-25T00:03:10.058Z,14.3
2017-09-25T00:04:09.749Z,14.3
2017-09-25T00:05:09.763Z,14.28
2017-09-25T00:06:09.780Z,14.25
2017-09-25T00:07:10.131Z,14.25
2017-09-25T00:08:09.817Z,14.29
2017-09-25T00:09:09.839Z,14.26
2017-09-25T00:10:09.858Z,14.23
2017-09-25T00:11:10.199Z,14.25
2017-09-25T00:12:09.890Z,14.26
2017-09-25T00:13:10.239Z,14.26
2017-09-25T00:14:10.254Z,14.22
2017-09-25T00:15:09.960Z,14.29
2017-09-25T00:16:09.966Z,14.29
2017-09-25T00:17:09.986Z,14.23
2017-09-25T00:18:10.328Z,14.25
2017-09-25T00:19:10.022Z,14.17
2017-09-25T00:20:10.366Z,14.28
2017-09-25T00:21:10.057Z,14.26
2017-09-25T00:22:09.755Z,14.25
2017-09-25T00:23:10.093Z,14.23
2017-09-25T00:24:10.434Z,14.2
2017-09-25T00:25:09.810Z,14.23
2017-09-25T00:26:10.477Z,14.28
2017-09-25T00:27:10.171Z,14.23
2017-09-25T00:28:10.186Z,14.22
2017-09-25T00:29:10.529Z,14.2
2017-09-25T00:30:10.227Z,14.18
2017-09-25T00:31:10.570Z,14.22
2017-09-25T00:32:10.260Z,14.17
2017-09-25T00:33:10.602Z,14.12
2017-09-25T00:34:10.622Z,14.23
2017-09-25T00:35:09.993Z,14.23
2017-09-25T00:36:10.334Z,14.29
2017-09-25T00:37:10.350Z,14.18
2017-09-25T00:38:10.383Z,14.12
2017-09-25T00:39:10.392Z,14.1
2017-09-25T00:40:10.732Z,14.22
2017-09-25T00:41:10.749Z,14.17
2017-09-25T00:42:10.466Z,14.1
2017-09-25T00:43:10.139Z,14.14
2017-09-25T00:44:10.483Z,14.18
2017-09-25T00:45:10.175Z,14.15
2017-09-25T00:46:10.196Z,14.18
2017-09-25T00:47:10.661Z,14.17
2017-09-25T00:48:10.550Z,14.17
2017-09-25T00:49:10.896Z,14.18
2017-09-25T00:50:18.178Z,14.15
2017-09-25T00:51:10.605Z,14.11
2017-09-25T00:52:10.633Z,14.17
2017-09-25T00:53:10.643Z,14.14
2017-09-25T00:54:11.017Z,14.2
2017-09-25T00:55:10.681Z,14.12
2017-09-25T00:56:10.699Z,14.12
2017-09-25T00:57:10.716Z,14.14
2017-09-25T00:58:11.064Z,14.05
2017-09-25T00:59:10.436Z,14.1
2017-09-25T01:00:10.785Z,14.07
2017-09-25T01:01:11.116Z,14.11
2017-09-25T01:02:11.173Z,14.1
2017-09-25T01:03:10.827Z,14.08
2017-09-25T01:04:11.219Z,14.1
2017-09-25T01:05:11.222Z,14.03
2017-09-25T01:06:10.558Z,14.05
2017-09-25T01:07:10.895Z,14
2017-09-25T01:08:10.922Z,13.99
2017-09-25T01:09:10.933Z,14.08
2017-09-25T01:10:11.281Z,13.99
2017-09-25T01:11:10.970Z,14
2017-09-25T01:12:11.316Z,13.97
2017-09-25T01:13:10.683Z,14.04
2017-09-25T01:14:11.026Z,13.9
2017-09-25T01:15:11.051Z,13.93
2017-09-25T01:16:11.063Z,13.96
2017-09-25T01:17:10.757Z,13.99
2017-09-25T01:18:10.778Z,13.92
2017-09-25T01:19:10.792Z,13.99
2017-09-25T01:20:10.834Z,13.95
2017-09-25T01:21:11.159Z,13.95
2017-09-25T01:22:11.175Z,13.97
2017-09-25T01:23:11.193Z,13.95
2017-09-25T01:24:11.217Z,13.92
2017-09-25T01:25:11.549Z,13.92
2017-09-25T01:26:10.922Z,13.89
2017-09-25T01:27:10.937Z,13.97
2017-09-25T01:28:11.281Z,13.9
2017-09-25T01:29:10.976Z,13.86
2017-09-25T01:30:11.314Z,13.85
2017-09-25T01:31:11.657Z,13.87
2017-09-25T01:32:11.669Z,13.87
2017-09-25T01:33:11.375Z,13.85
2017-09-25T01:34:11.390Z,13.85
2017-09-25T01:35:11.728Z,13.89
2017-09-25T01:36:11.420Z,13.85
2017-09-25T01:37:11.445Z,13.86
2017-09-25T01:38:11.788Z,13.78
2017-09-25T01:39:11.479Z,13.86
2017-09-25T01:40:11.814Z,13.85
2017-09-25T01:41:11.839Z,13.9
2017-09-25T01:42:11.855Z,13.9
2017-09-25T01:43:11.224Z,13.87
2017-09-25T01:44:11.578Z,13.86
2017-09-25T01:45:11.583Z,13.78
2017-09-25T01:46:11.603Z,13.77
2017-09-25T01:47:11.625Z,13.89
2017-09-25T01:48:11.962Z,13.79
2017-09-25T01:49:11.986Z,13.89
2017-09-25T01:50:11.676Z,13.87
2017-09-25T01:51:11.374Z,13.79
2017-09-25T01:52:11.386Z,13.9
2017-09-25T01:53:11.728Z,13.78
2017-09-25T01:54:11.748Z,13.87
2017-09-25T01:55:11.437Z,13.83
2017-09-25T01:56:12.107Z,13.79
2017-09-25T01:57:11.475Z,13.78
2017-09-25T01:58:11.492Z,13.79
2017-09-25T01:59:11.518Z,13.75
2017-09-25T02:00:12.179Z,13.74
2017-09-25T02:01:11.869Z,13.78
2017-09-25T02:02:11.889Z,13.79
2017-09-25T02:03:12.234Z,13.75
2017-09-25T02:04:11.927Z,13.75
2017-09-25T02:05:11.948Z,13.78
2017-09-25T02:06:12.320Z,13.75
2017-09-25T02:07:12.303Z,13.89
2017-09-25T02:08:12.328Z,13.81
2017-09-25T02:09:12.021Z,13.83
2017-09-25T02:10:12.034Z,13.79
2017-09-25T02:11:12.050Z,13.79
2017-09-25T02:12:12.071Z,13.77
2017-09-25T02:13:11.761Z,13.79
2017-09-25T02:14:12.106Z,13.83
2017-09-25T02:15:12.553Z,13.75
2017-09-25T02:16:12.555Z,13.79
2017-09-25T02:17:12.161Z,13.79
2017-09-25T02:18:12.181Z,13.79
2017-09-25T02:19:12.550Z,13.77
2017-09-25T02:20:12.214Z,13.79
2017-09-25T02:21:12.231Z,13.78
2017-09-25T02:22:12.367Z,13.79
2017-09-25T02:23:11.945Z,13.83
2017-09-25T02:24:12.365Z,13.83
2017-09-25T02:25:12.701Z,13.79
2017-09-25T02:26:11.999Z,13.77
2017-09-25T02:27:12.400Z,13.78
2017-09-25T02:28:12.699Z,13.79
2017-09-25T02:29:12.374Z,13.85
2017-09-25T02:30:12.720Z,13.79
2017-09-25T02:31:12.741Z,13.81
2017-09-25T02:32:12.537Z,13.75
2017-09-25T02:33:12.443Z,13.81
2017-09-25T02:34:12.459Z,13.79
2017-09-25T02:35:12.808Z,13.79
2017-09-25T02:36:12.559Z,13.86
2017-09-25T02:37:12.559Z,13.81
2017-09-25T02:38:12.859Z,13.86
2017-09-25T02:39:12.565Z,13.79
2017-09-25T02:40:12.891Z,13.74
2017-09-25T02:41:12.590Z,13.75
2017-09-25T02:42:12.610Z,13.79
2017-09-25T02:43:12.304Z,13.79
2017-09-25T02:44:12.645Z,13.79
2017-09-25T02:45:12.982Z,13.78
2017-09-25T02:46:12.684Z,13.79
2017-09-25T02:47:12.706Z,13.78
2017-09-25T02:48:13.038Z,13.78
2017-09-25T02:49:13.057Z,13.79
2017-09-25T02:50:13.076Z,13.78
2017-09-25T02:51:12.764Z,13.81
2017-09-25T02:52:12.786Z,13.77
2017-09-25T02:53:12.804Z,13.79
2017-09-25T02:54:13.149Z,13.83
2017-09-25T02:55:12.843Z,13.83
2017-09-25T02:56:12.862Z,13.77
2017-09-25T02:57:13.201Z,13.79
2017-09-25T02:58:13.215Z,13.83
2017-09-25T02:59:12.583Z,13.75
2017-09-25T03:00:12.925Z,13.75
2017-09-25T03:01:12.944Z,13.79
2017-09-25T03:02:13.290Z,13.79
2017-09-25T03:03:13.415Z,13.83
2017-09-25T03:04:13.001Z,13.78
2017-09-25T03:05:13.549Z,13.78
2017-09-25T03:06:12.712Z,13.79
2017-09-25T03:07:13.050Z,13.79
2017-09-25T03:08:13.411Z,13.79
2017-09-25T03:09:13.420Z,13.79
2017-09-25T03:10:13.579Z,13.79
2017-09-25T03:11:13.454Z,13.78
2017-09-25T03:12:13.150Z,13.74
2017-09-25T03:13:13.575Z,13.79
2017-09-25T03:14:13.187Z,13.79
2017-09-25T03:15:13.285Z,13.77
2017-09-25T03:16:13.539Z,13.77
2017-09-25T03:17:13.558Z,13.81
2017-09-25T03:18:13.249Z,13.77
2017-09-25T03:19:13.690Z,13.83
2017-09-25T03:20:13.548Z,13.81
2017-09-25T03:21:13.398Z,13.79
2017-09-25T03:22:13.425Z,13.85
2017-09-25T03:23:13.722Z,13.78
2017-09-25T03:24:13.034Z,13.79
2017-09-25T03:25:13.796Z,13.79
2017-09-25T03:26:13.421Z,13.79
2017-09-25T03:27:13.587Z,13.79
2017-09-25T03:28:13.428Z,13.87
2017-09-25T03:29:13.772Z,13.78
2017-09-25T03:30:13.794Z,13.83
2017-09-25T03:31:13.582Z,13.79
2017-09-25T03:32:13.581Z,13.77
2017-09-25T03:33:13.591Z,13.81
2017-09-25T03:34:13.861Z,13.83
2017-09-25T03:35:13.552Z,13.77
2017-09-25T03:36:13.893Z,13.77
2017-09-25T03:37:13.915Z,13.87
2017-09-25T03:38:13.607Z,13.93
2017-09-25T03:39:13.706Z,13.77
2017-09-25T03:40:13.733Z,13.81
2017-09-25T03:41:13.731Z,13.87
2017-09-25T03:42:13.841Z,13.87
2017-09-25T03:43:13.848Z,13.81
2017-09-25T03:44:13.833Z,13.9
2017-09-25T03:45:13.642Z,13.78
2017-09-25T03:46:14.073Z,13.78
2017-09-25T03:47:14.115Z,13.87
2017-09-25T03:48:14.111Z,13.86
2017-09-25T03:49:13.953Z,13.89
2017-09-25T03:50:13.828Z,13.85
2017-09-25T03:51:13.834Z,13.79
2017-09-25T03:52:14.202Z,13.79
2017-09-25T03:53:14.198Z,13.75
2017-09-25T03:54:14.210Z,13.83
2017-09-25T03:55:13.587Z,13.86
2017-09-25T03:56:13.929Z,13.78
2017-09-25T03:57:14.269Z,13.81
2017-09-25T03:58:14.288Z,13.85
2017-09-25T03:59:14.308Z,13.86
2017-09-25T04:00:14.340Z,13.92
2017-09-25T04:01:14.015Z,13.85
2017-09-25T04:02:14.362Z,13.81
2017-09-25T04:03:14.509Z,13.81
2017-09-25T04:04:13.751Z,13.89
2017-09-25T04:05:13.767Z,13.89
2017-09-25T04:06:14.553Z,13.9
2017-09-25T04:07:14.181Z,13.78
2017-09-25T04:08:14.146Z,13.89
2017-09-25T04:09:14.484Z,13.87
2017-09-25T04:10:14.185Z,13.9
2017-09-25T04:11:14.192Z,13.85
2017-09-25T04:12:14.212Z,13.89
2017-09-25T04:13:14.560Z,13.86
2017-09-25T04:14:14.248Z,13.86
2017-09-25T04:15:13.942Z,13.86
2017-09-25T04:16:13.977Z,13.83
2017-09-25T04:17:14.626Z,13.9
2017-09-25T04:18:14.645Z,13.92
2017-09-25T04:19:14.339Z,13.85
2017-09-25T04:20:14.354Z,13.87
2017-09-25T04:21:14.700Z,13.86
2017-09-25T04:22:14.068Z,13.93
2017-09-25T04:23:14.502Z,13.83
2017-09-25T04:24:14.104Z,13.97
2017-09-25T04:25:14.444Z,13.92
2017-09-25T04:26:15.157Z,13.87
2017-09-25T04:27:14.507Z,13.87
2017-09-25T04:28:14.496Z,13.9
2017-09-25T04:29:14.518Z,13.85
2017-09-25T04:30:14.210Z,13.9
2017-09-25T04:31:14.646Z,13.87
2017-09-25T04:32:14.771Z,13.85
2017-09-25T04:33:14.936Z,13.86
2017-09-25T04:34:14.727Z,13.9
2017-09-25T04:35:14.624Z,13.85
2017-09-25T04:36:14.641Z,13.9
2017-09-25T04:37:14.685Z,13.87
2017-09-25T04:38:14.678Z,13.9
2017-09-25T04:39:14.697Z,13.89
2017-09-25T04:40:14.390Z,13.85
2017-09-25T04:41:14.409Z,13.86
2017-09-25T04:42:14.422Z,13.87
2017-09-25T04:43:14.444Z,13.86
2017-09-25T04:44:15.238Z,13.89
2017-09-25T04:45:14.807Z,13.92
2017-09-25T04:46:14.819Z,13.9
2017-09-25T04:47:14.522Z,13.97
2017-09-25T04:48:14.864Z,13.9
2017-09-25T04:49:14.874Z,13.89
2017-09-25T04:50:15.213Z,13.97
2017-09-25T04:51:15.271Z,13.97
2017-09-25T04:52:15.270Z,13.9
2017-09-25T04:53:14.961Z,13.95
2017-09-25T04:54:14.642Z,13.93
2017-09-25T04:55:15.303Z,13.92
2017-09-25T04:56:15.005Z,13.93
2017-09-25T04:57:15.433Z,13.95
2017-09-25T04:58:15.038Z,13.95
2017-09-25T04:59:15.431Z,13.96
2017-09-25T05:00:15.074Z,13.95
2017-09-25T05:01:15.420Z,13.95
2017-09-25T05:02:15.106Z,13.99
2017-09-25T05:03:15.120Z,13.95
2017-09-25T05:04:15.235Z,14
2017-09-25T05:05:15.162Z,13.96
2017-09-25T05:06:15.406Z,14.03
2017-09-25T05:07:15.271Z,13.97
2017-09-25T05:08:14.892Z,13.95
2017-09-25T05:09:15.558Z,13.92
2017-09-25T05:10:15.419Z,13.89
2017-09-25T05:11:15.733Z,13.95
2017-09-25T05:12:15.729Z,13.9
2017-09-25T05:13:15.631Z,13.97
2017-09-25T05:14:15.550Z,13.95
2017-09-25T05:15:15.558Z,13.95
2017-09-25T05:16:15.693Z,13.96
2017-09-25T05:17:15.699Z,13.93
2017-09-25T05:18:15.392Z,13.96
2017-09-25T05:19:15.557Z,13.95
2017-09-25T05:20:15.223Z,14.03
2017-09-25T05:21:15.906Z,14.03
2017-09-25T05:22:15.790Z,14
2017-09-25T05:23:15.479Z,14.04
2017-09-25T05:24:15.827Z,14
2017-09-25T05:25:15.517Z,14.04
2017-09-25T05:26:15.209Z,14.05
2017-09-25T05:27:15.550Z,14.03
2017-09-25T05:28:15.424Z,14.04
2017-09-25T05:29:15.423Z,14.03
2017-09-25T05:30:15.957Z,14
2017-09-25T05:31:15.957Z,14.04
2017-09-25T05:32:15.649Z,14.03
2017-09-25T05:33:16.035Z,14.1
2017-09-25T05:34:15.711Z,14.08
2017-09-25T05:35:15.697Z,14.07
2017-09-25T05:36:16.038Z,14.08
2017-09-25T05:37:15.408Z,14.07
2017-09-25T05:38:15.432Z,14.08
2017-09-25T05:39:15.770Z,14.04
2017-09-25T05:40:15.790Z,14.05
2017-09-25T05:41:15.489Z,14.04
2017-09-25T05:42:16.143Z,14.11
2017-09-25T05:43:15.839Z,14.08
2017-09-25T05:44:16.180Z,14.11
2017-09-25T05:45:16.205Z,14.1
2017-09-25T05:46:15.572Z,14.14
2017-09-25T05:47:16.312Z,14.07
2017-09-25T05:48:15.930Z,14.17
2017-09-25T05:49:15.947Z,14.07
2017-09-25T05:50:16.292Z,14.2
2017-09-25T05:51:15.661Z,14.08
2017-09-25T05:52:15.677Z,14.12
2017-09-25T05:53:16.018Z,14.15
2017-09-25T05:54:16.036Z,14.18
2017-09-25T05:55:16.080Z,14.17
2017-09-25T05:56:16.078Z,14.03
2017-09-25T05:57:16.092Z,14.2
2017-09-25T05:58:16.110Z,14.17
2017-09-25T05:59:16.455Z,14.17
2017-09-25T06:00:16.147Z,14.15
2017-09-25T06:01:16.162Z,14.17
2017-09-25T06:02:16.175Z,14.12
2017-09-25T06:03:16.204Z,14.12
2017-09-25T06:04:16.216Z,14.14
2017-09-25T06:05:16.559Z,14.17
2017-09-25T06:06:16.578Z,14.17
2017-09-25T06:07:15.950Z,14.18
2017-09-25T06:08:16.286Z,14.18
2017-09-25T06:09:16.307Z,14.15
2017-09-25T06:10:16.002Z,14.17
2017-09-25T06:11:16.341Z,14.22
2017-09-25T06:12:16.364Z,14.22
2017-09-25T06:13:16.055Z,14.25
2017-09-25T06:14:16.402Z,14.22
2017-09-25T06:15:16.740Z,14.22
2017-09-25T06:16:16.459Z,14.25
2017-09-25T06:17:16.463Z,14.22
2017-09-25T06:18:16.565Z,14.29
2017-09-25T06:19:16.488Z,14.2
2017-09-25T06:20:16.832Z,14.26
2017-09-25T06:21:16.849Z,14.26
2017-09-25T06:22:16.539Z,14.26
2017-09-25T06:23:16.559Z,14.2
2017-09-25T06:24:16.575Z,14.23
2017-09-25T06:25:16.272Z,14.26
2017-09-25T06:26:16.611Z,14.28
2017-09-25T06:27:16.961Z,14.28
2017-09-25T06:28:16.647Z,14.32
2017-09-25T06:29:16.344Z,14.33
2017-09-25T06:30:16.690Z,14.36
2017-09-25T06:31:16.704Z,14.35
2017-09-25T06:32:16.724Z,14.33
2017-09-25T06:33:17.076Z,14.36
2017-09-25T06:34:17.083Z,14.29
2017-09-25T06:35:16.779Z,14.36
2017-09-25T06:36:16.795Z,14.41
2017-09-25T06:37:16.811Z,14.37
2017-09-25T06:38:17.157Z,14.43
2017-09-25T06:39:16.954Z,14.45
2017-09-25T06:40:17.187Z,14.4
2017-09-25T06:41:16.887Z,14.43
2017-09-25T06:42:16.707Z,14.41
2017-09-25T06:43:17.110Z,14.51
2017-09-25T06:44:17.024Z,14.43
2017-09-25T06:45:17.029Z,14.53
2017-09-25T06:46:17.044Z,14.5
2017-09-25T06:47:16.687Z,14.5
2017-09-25T06:48:17.127Z,14.5
2017-09-25T06:49:17.142Z,14.5
2017-09-25T06:50:17.459Z,14.51
2017-09-25T06:51:16.744Z,14.48
2017-09-25T06:52:17.082Z,14.55
2017-09-25T06:53:16.781Z,14.48
2017-09-25T06:54:17.118Z,14.51
2017-09-25T06:55:16.813Z,14.51
2017-09-25T06:56:17.484Z,14.53
2017-09-25T06:57:16.848Z,14.54
2017-09-25T06:58:17.513Z,14.54
2017-09-25T06:59:17.536Z,14.51
2017-09-25T07:00:17.556Z,14.47
2017-09-25T07:01:17.572Z,14.5
2017-09-25T07:02:17.273Z,14.58
2017-09-25T07:03:17.799Z,14.47
2017-09-25T07:04:17.400Z,14.53
2017-09-25T07:05:17.408Z,14.55
2017-09-25T07:06:17.430Z,14.5
2017-09-25T07:07:17.354Z,14.54
2017-09-25T07:08:17.054Z,14.6
2017-09-25T07:09:17.163Z,14.54
2017-09-25T07:10:17.090Z,14.66
2017-09-25T07:11:17.428Z,14.54
2017-09-25T07:12:17.449Z,14.62
2017-09-25T07:13:17.472Z,14.6
2017-09-25T07:14:17.169Z,14.69
2017-09-25T07:15:17.180Z,14.69
2017-09-25T07:16:17.318Z,14.63
2017-09-25T07:17:17.784Z,14.6
2017-09-25T07:18:17.793Z,14.68
2017-09-25T07:19:17.576Z,14.65
2017-09-25T07:20:17.629Z,14.63
2017-09-25T07:21:17.683Z,14.72
2017-09-25T07:22:17.712Z,14.63
2017-09-25T07:23:17.540Z,14.63
2017-09-25T07:24:18.190Z,14.7
2017-09-25T07:25:17.364Z,14.66
2017-09-25T07:26:18.117Z,14.66
2017-09-25T07:27:18.118Z,14.77
2017-09-25T07:28:17.743Z,14.73
2017-09-25T07:29:17.766Z,14.77
2017-09-25T07:30:17.458Z,14.7
2017-09-25T07:31:17.470Z,14.73
2017-09-25T07:32:17.898Z,14.7
2017-09-25T07:33:17.834Z,14.69
2017-09-25T07:34:18.286Z,14.73
2017-09-25T07:35:17.871Z,14.72
2017-09-25T07:36:17.885Z,14.72
2017-09-25T07:37:17.907Z,14.78
2017-09-25T07:38:17.931Z,14.73
2017-09-25T07:39:17.945Z,14.79
2017-09-25T07:40:17.649Z,14.78
2017-09-25T07:41:17.659Z,14.77
2017-09-25T07:42:18.328Z,14.84
2017-09-25T07:43:18.020Z,14.89
2017-09-25T07:44:18.356Z,14.82
2017-09-25T07:45:18.055Z,14.82
2017-09-25T07:46:18.392Z,14.81
2017-09-25T07:47:18.432Z,14.82
2017-09-25T07:48:18.434Z,14.84
2017-09-25T07:49:18.128Z,14.94
2017-09-25T07:50:18.147Z,15
2017-09-25T07:51:18.485Z,14.99
2017-09-25T07:52:18.179Z,14.97
2017-09-25T07:53:18.197Z,14.94
2017-09-25T07:54:18.539Z,14.91
2017-09-25T07:55:18.565Z,15.02
2017-09-25T07:56:18.576Z,15.02
2017-09-25T07:57:18.593Z,15.09
2017-09-25T07:58:18.320Z,15.02
2017-09-25T07:59:17.986Z,15.03
2017-09-25T08:00:18.006Z,15.06
2017-09-25T08:01:18.671Z,15.15
2017-09-25T08:02:18.707Z,15.06
2017-09-25T08:03:18.383Z,15.14
2017-09-25T08:04:18.728Z,15.11
2017-09-25T08:05:18.418Z,15.1
2017-09-25T08:06:18.759Z,15.21
2017-09-25T08:07:18.780Z,15.15
2017-09-25T08:08:18.800Z,15.18
2017-09-25T08:09:18.703Z,15.15
2017-09-25T08:10:18.687Z,15.22
2017-09-25T08:11:18.538Z,15.15
2017-09-25T08:12:18.329Z,15.27
2017-09-25T08:13:18.568Z,15.24
2017-09-25T08:14:18.587Z,15.22
2017-09-25T08:15:18.937Z,15.22
2017-09-25T08:16:18.625Z,15.22
2017-09-25T08:17:18.646Z,15.29
2017-09-25T08:18:18.661Z,15.31
2017-09-25T08:19:18.355Z,15.24
2017-09-25T08:20:19.077Z,15.18
2017-09-25T08:21:18.720Z,15.25
2017-09-25T08:22:19.077Z,15.25
2017-09-25T08:23:18.758Z,15.28
2017-09-25T08:24:18.894Z,15.24
2017-09-25T08:25:18.893Z,15.43
2017-09-25T08:26:19.218Z,15.31
2017-09-25T08:27:18.919Z,15.4
2017-09-25T08:28:18.918Z,15.28
2017-09-25T08:29:18.541Z,15.33
2017-09-25T08:30:19.226Z,15.35
2017-09-25T08:31:18.924Z,15.25
2017-09-25T08:32:18.923Z,15.33
2017-09-25T08:33:19.264Z,15.31
2017-09-25T08:34:18.633Z,15.33
2017-09-25T08:35:19.299Z,15.39
2017-09-25T08:36:19.090Z,15.36
2017-09-25T08:37:19.340Z,15.35
2017-09-25T08:38:19.364Z,15.43
2017-09-25T08:39:19.374Z,15.4
2017-09-25T08:40:19.083Z,15.37
2017-09-25T08:41:19.094Z,15.37
2017-09-25T08:42:18.903Z,15.37
2017-09-25T08:43:18.901Z,15.42
2017-09-25T08:44:18.835Z,15.4
2017-09-25T08:45:18.929Z,15.44
2017-09-25T08:46:19.226Z,15.46
2017-09-25T08:47:18.936Z,15.46
2017-09-25T08:48:19.225Z,15.51
2017-09-25T08:49:18.924Z,15.52
2017-09-25T08:50:19.263Z,15.49
2017-09-25T08:51:18.959Z,15.51
2017-09-25T08:52:18.978Z,15.52
2017-09-25T08:53:19.640Z,15.51
2017-09-25T08:54:19.012Z,15.55
2017-09-25T08:55:19.031Z,15.54
2017-09-25T08:56:19.698Z,15.52
2017-09-25T08:57:19.718Z,15.55
2017-09-25T08:58:19.420Z,15.55
2017-09-25T08:59:19.429Z,15.55
2017-09-25T09:00:19.126Z,15.61
2017-09-25T09:01:19.477Z,15.62
2017-09-25T09:02:19.809Z,15.7
2017-09-25T09:03:19.829Z,15.67
2017-09-25T09:04:19.525Z,15.61
2017-09-25T09:05:19.223Z,15.55
2017-09-25T09:06:19.890Z,15.64
2017-09-25T09:07:19.578Z,15.54
2017-09-25T09:08:19.927Z,15.62
2017-09-25T09:09:19.947Z,15.68
2017-09-25T09:10:19.314Z,15.68
2017-09-25T09:11:19.661Z,15.61
2017-09-25T09:12:20.002Z,15.64
2017-09-25T09:13:20.017Z,15.62
2017-09-25T09:14:19.717Z,15.61
2017-09-25T09:15:19.732Z,15.64
2017-09-25T09:16:19.753Z,15.65
2017-09-25T09:17:19.769Z,15.58
2017-09-25T09:18:20.116Z,15.65
2017-09-25T09:19:19.804Z,15.59
2017-09-25T09:20:19.506Z,15.64
2017-09-25T09:21:20.172Z,15.58
2017-09-25T09:22:20.197Z,15.65
2017-09-25T09:23:19.887Z,15.65
2017-09-25T09:24:20.223Z,15.65
2017-09-25T09:25:20.266Z,15.68
2017-09-25T09:26:19.939Z,15.61
2017-09-25T09:27:19.738Z,15.49
2017-09-25T09:28:19.977Z,15.49
2017-09-25T09:29:19.998Z,15.46
2017-09-25T09:30:20.016Z,15.49
2017-09-25T09:31:20.363Z,15.51
2017-09-25T09:32:20.052Z,15.57
2017-09-25T09:33:20.401Z,15.52
2017-09-25T09:34:20.095Z,15.52
2017-09-25T09:35:20.232Z,15.59
2017-09-25T09:36:20.606Z,15.49
2017-09-25T09:37:20.240Z,15.52
2017-09-25T09:38:20.606Z,15.44
2017-09-25T09:39:20.279Z,15.49
2017-09-25T09:40:20.284Z,15.49
2017-09-25T09:41:20.455Z,15.46
2017-09-25T09:42:19.917Z,15.4
2017-09-25T09:43:20.265Z,15.39
2017-09-25T09:44:20.607Z,15.37
2017-09-25T09:45:20.645Z,15.44
2017-09-25T09:46:20.644Z,15.33
2017-09-25T09:47:20.663Z,15.4
2017-09-25T09:48:20.355Z,15.42
2017-09-25T09:49:20.376Z,15.33
2017-09-25T09:50:20.391Z,15.33
2017-09-25T09:51:20.419Z,15.28
2017-09-25T09:52:20.756Z,15.31
2017-09-25T09:53:20.778Z,15.31
2017-09-25T09:54:20.468Z,15.28
2017-09-25T09:55:20.495Z,15.28
2017-09-25T09:56:20.512Z,15.19
2017-09-25T09:57:20.527Z,15.18
2017-09-25T09:58:20.906Z,15.28
2017-09-25T09:59:20.564Z,15.27
2017-09-25T10:00:20.585Z,15.21
2017-09-25T10:01:20.610Z,15.25
2017-09-25T10:02:21.041Z,15.27
2017-09-25T10:03:21.072Z,15.18
2017-09-25T10:04:20.658Z,15.22
2017-09-25T10:05:21.066Z,15.19
2017-09-25T10:06:20.698Z,15.17
2017-09-25T10:07:20.716Z,15.18
2017-09-25T10:08:20.737Z,15.25
2017-09-25T10:09:21.193Z,15.17
2017-09-25T10:10:21.190Z,15.24
2017-09-25T10:11:20.471Z,15.19
2017-09-25T10:12:20.817Z,15.21
2017-09-25T10:13:20.861Z,15.19
2017-09-25T10:14:20.849Z,15.22
2017-09-25T10:15:20.867Z,15.21
2017-09-25T10:16:20.566Z,15.21
2017-09-25T10:17:21.240Z,15.22
2017-09-25T10:18:21.256Z,15.21
2017-09-25T10:19:21.017Z,15.17
2017-09-25T10:20:21.027Z,15.09
2017-09-25T10:21:21.303Z,15.18
2017-09-25T10:22:21.063Z,15.14
2017-09-25T10:23:20.699Z,15.21
2017-09-25T10:24:21.132Z,15.21
2017-09-25T10:25:21.380Z,15.21
2017-09-25T10:26:21.140Z,15.24
2017-09-25T10:27:20.867Z,15.22
2017-09-25T10:28:21.440Z,15.21
2017-09-25T10:29:21.454Z,15.19
2017-09-25T10:30:21.495Z,15.18
2017-09-25T10:31:21.176Z,15.21
2017-09-25T10:32:21.518Z,15.19
2017-09-25T10:33:21.210Z,15.28
2017-09-25T10:34:21.228Z,15.19
2017-09-25T10:35:21.570Z,15.27
2017-09-25T10:36:21.629Z,15.27
2017-09-25T10:37:21.025Z,15.22
2017-09-25T10:38:21.625Z,15.22
2017-09-25T10:39:21.326Z,15.17
2017-09-25T10:40:21.668Z,15.25
2017-09-25T10:41:21.359Z,15.15
2017-09-25T10:42:21.129Z,15.15
2017-09-25T10:43:21.729Z,15.28
2017-09-25T10:44:21.736Z,15.27
2017-09-25T10:45:21.436Z,15.29
2017-09-25T10:46:21.133Z,15.28
2017-09-25T10:47:21.148Z,15.29
2017-09-25T10:48:21.492Z,15.35
2017-09-25T10:49:22.033Z,15.29
2017-09-25T10:50:21.526Z,15.33
2017-09-25T10:51:21.553Z,15.35
2017-09-25T10:52:21.566Z,15.35
2017-09-25T10:53:21.698Z,15.4
2017-09-25T10:54:22.067Z,15.4
2017-09-25T10:55:21.738Z,15.39
2017-09-25T10:56:21.736Z,15.35
2017-09-25T10:57:21.763Z,15.36
2017-09-25T10:58:21.761Z,15.39
2017-09-25T10:59:21.799Z,15.43
2017-09-25T11:00:21.771Z,15.49
2017-09-25T11:01:22.068Z,15.52
2017-09-25T11:02:22.091Z,15.47
2017-09-25T11:03:21.898Z,15.54
2017-09-25T11:04:22.116Z,15.54
2017-09-25T11:05:21.923Z,15.57
2017-09-25T11:06:21.933Z,15.64
2017-09-25T11:07:22.243Z,15.59
2017-09-25T11:08:22.199Z,15.65
2017-09-25T11:09:21.896Z,15.61
2017-09-25T11:10:22.236Z,15.64
2017-09-25T11:11:22.250Z,15.62
2017-09-25T11:12:22.268Z,15.72
2017-09-25T11:13:21.660Z,15.76
2017-09-25T11:14:21.661Z,15.82
2017-09-25T11:15:22.332Z,15.8
2017-09-25T11:16:22.349Z,15.86
2017-09-25T11:17:22.368Z,15.91
2017-09-25T11:18:21.742Z,15.92
2017-09-25T11:19:21.831Z,15.91
2017-09-25T11:20:22.425Z,15.97
2017-09-25T11:21:22.116Z,15.98
2017-09-25T11:22:22.140Z,15.92
2017-09-25T11:23:22.161Z,16.1
2017-09-25T11:24:22.174Z,16.08
2017-09-25T11:25:22.194Z,16.08
2017-09-25T11:26:21.892Z,16.17
2017-09-25T11:27:22.241Z,16.2
2017-09-25T11:28:22.578Z,16.2
2017-09-25T11:29:21.952Z,16.23
2017-09-25T11:30:21.969Z,16.38
2017-09-25T11:31:22.313Z,16.42
2017-09-25T11:32:22.333Z,16.43
2017-09-25T11:33:22.356Z,16.43
2017-09-25T11:34:22.045Z,16.42
2017-09-25T11:35:22.389Z,16.53
2017-09-25T11:36:22.408Z,16.5
2017-09-25T11:37:22.431Z,16.57
2017-09-25T11:38:22.122Z,16.65
2017-09-25T11:39:22.466Z,16.68
2017-09-25T11:40:22.162Z,16.75
2017-09-25T11:41:22.533Z,16.76
2017-09-25T11:42:22.529Z,16.78
2017-09-25T11:43:22.549Z,16.81
2017-09-25T11:44:22.563Z,16.79
2017-09-25T11:45:22.590Z,16.84
2017-09-25T11:46:22.607Z,16.81
2017-09-25T11:47:22.944Z,16.83
2017-09-25T11:48:22.963Z,16.89
2017-09-25T11:49:22.664Z,16.96
2017-09-25T11:50:23.012Z,16.89
2017-09-25T11:51:23.024Z,17.02
2017-09-25T11:52:22.720Z,16.83
2017-09-25T11:53:22.417Z,17.02
2017-09-25T11:54:22.446Z,17.01
2017-09-25T11:55:22.785Z,17.02
2017-09-25T11:56:22.805Z,16.97
2017-09-25T11:57:22.818Z,16.96
2017-09-25T11:58:22.851Z,17.08
2017-09-25T11:59:22.858Z,17.04
2017-09-25T12:00:22.556Z,17.11
2017-09-25T12:01:22.966Z,17.09
2017-09-25T12:02:22.597Z,17.05
2017-09-25T12:03:22.943Z,17.15
2017-09-25T12:04:23.368Z,17.09
2017-09-25T12:05:23.308Z,17.14
2017-09-25T12:06:23.001Z,17.09
2017-09-25T12:07:23.338Z,17.15
2017-09-25T12:08:23.404Z,17.09
2017-09-25T12:09:23.055Z,17.14
2017-09-25T12:10:23.403Z,17.26
2017-09-25T12:11:23.095Z,17.15
2017-09-25T12:12:23.120Z,17.16
2017-09-25T12:13:23.458Z,17.22
2017-09-25T12:14:22.832Z,17.2
2017-09-25T12:15:22.851Z,17.2
2017-09-25T12:16:23.194Z,17.38
2017-09-25T12:17:23.213Z,17.33
2017-09-25T12:18:22.914Z,17.34
2017-09-25T12:19:23.261Z,17.36
2017-09-25T12:20:23.604Z,17.41
2017-09-25T12:21:23.300Z,17.46
2017-09-25T12:22:22.992Z,17.52
2017-09-25T12:23:23.010Z,17.46
2017-09-25T12:24:23.355Z,17.48
2017-09-25T12:25:23.051Z,17.57
2017-09-25T12:26:23.077Z,17.52
2017-09-25T12:27:23.414Z,17.56
2017-09-25T12:28:23.440Z,17.54
2017-09-25T12:29:23.130Z,17.65
2017-09-25T12:30:23.595Z,17.68
2017-09-25T12:31:23.496Z,17.71
2017-09-25T12:32:23.514Z,17.68
2017-09-25T12:33:23.212Z,17.74
2017-09-25T12:34:23.230Z,17.74
2017-09-25T12:35:23.259Z,17.7
2017-09-25T12:36:23.268Z,17.71
2017-09-25T12:37:23.945Z,17.76
2017-09-25T12:38:23.962Z,17.79
2017-09-25T12:39:23.738Z,17.82
2017-09-25T12:40:23.680Z,17.85
2017-09-25T12:41:23.887Z,17.89
2017-09-25T12:42:23.747Z,17.86
2017-09-25T12:43:24.199Z,17.89
2017-09-25T12:44:23.874Z,17.95
2017-09-25T12:45:24.016Z,18.01
2017-09-25T12:46:24.126Z,18
2017-09-25T12:47:24.148Z,18.03
2017-09-25T12:48:24.192Z,18.13
2017-09-25T12:49:24.180Z,18.03
2017-09-25T12:50:24.098Z,18.01
2017-09-25T12:51:24.212Z,18.11
2017-09-25T12:52:24.240Z,18.16
2017-09-25T12:53:23.611Z,18.22
2017-09-25T12:54:23.629Z,18.2
2017-09-25T12:55:23.975Z,18.31